createdAt,value
2022-09-06T00:01:10.845Z,2.50
2022-09-06T00:03:40.645Z,2.27
2022-09-06T00:06:10.678Z,2.50
2022-09-06T00:08:38.609Z,2.57
2022-09-06T00:11:06.807Z,2.67
2022-09-06T00:13:34.813Z,2.30
2022-09-06T00:16:07.624Z,2.60
2022-09-06T00:18:35.538Z,2.37
2022-09-06T00:21:05.689Z,2.90
2022-09-06T00:23:33.369Z,2.70
2022-09-06T00:26:04.978Z,2.57
2022-09-06T00:28:32.836Z,2.30
2022-09-06T00:31:08.348Z,2.40
2022-09-06T00:33:36.224Z,2.90
2022-09-06T00:36:05.567Z,2.40
2022-09-06T00:38:34.151Z,2.60
2022-09-06T00:41:04.306Z,2.80
2022-09-06T00:43:33.695Z,2.50
2022-09-06T00:46:02.814Z,2.60
2022-09-06T00:48:30.800Z,2.97
2022-09-06T00:51:02.432Z,2.63
2022-09-06T00:53:33.024Z,2.70
2022-09-06T00:56:00.819Z,2.70
2022-09-06T00:58:29.257Z,2.50
2022-09-06T01:00:57.021Z,3.23
2022-09-06T01:03:26.265Z,2.53
2022-09-06T01:06:01.578Z,2.60
2022-09-06T01:08:44.156Z,2.70
2022-09-06T01:11:24.675Z,2.77
2022-09-06T01:14:01.066Z,2.43
2022-09-06T01:16:37.160Z,2.50
2022-09-06T01:19:34.084Z,2.33
2022-09-06T01:22:14.254Z,2.50
2022-09-06T01:25:05.096Z,3.00
2022-09-06T01:28:03.977Z,2.73
2022-09-06T01:30:35.528Z,2.33
2022-09-06T01:33:11.345Z,2.70
2022-09-06T01:35:42.890Z,2.83
2022-09-06T01:38:11.373Z,2.73
2022-09-06T01:40:39.207Z,2.70
2022-09-06T01:43:11.725Z,2.90
2022-09-06T01:45:45.810Z,2.70
2022-09-06T01:48:25.089Z,2.80
2022-09-06T01:51:09.610Z,2.60
2022-09-06T01:54:02.677Z,2.47
2022-09-06T01:56:39.220Z,3.23
2022-09-06T01:59:29.716Z,2.90
2022-09-06T02:02:04.756Z,3.03
2022-09-06T02:04:41.171Z,2.90
2022-09-06T02:07:14.503Z,2.73
2022-09-06T02:09:46.899Z,2.63
2022-09-06T02:12:15.734Z,2.90
2022-09-06T02:14:49.716Z,3.03
2022-09-06T02:17:22.261Z,2.70
2022-09-06T02:19:55.486Z,2.60
2022-09-06T02:22:28.330Z,2.40
2022-09-06T02:24:59.718Z,3.00
2022-09-06T02:27:30.723Z,3.30
2022-09-06T02:30:02.851Z,3.37
2022-09-06T02:32:33.673Z,2.70
2022-09-06T02:35:09.452Z,2.80
2022-09-06T02:37:37.219Z,3.30
2022-09-06T02:40:05.929Z,2.50
2022-09-06T02:42:34.038Z,2.57
2022-09-06T02:45:03.039Z,2.87
2022-09-06T02:47:30.773Z,2.90
2022-09-06T02:49:58.412Z,2.90
2022-09-06T02:52:26.081Z,2.50
2022-09-06T02:54:53.754Z,3.00
2022-09-06T02:57:21.383Z,2.50
2022-09-06T02:59:49.048Z,3.07
2022-09-06T03:02:18.207Z,2.70
2022-09-06T03:04:45.944Z,2.50
2022-09-06T03:07:13.613Z,2.80
2022-09-06T03:09:41.703Z,3.20
2022-09-06T03:12:09.465Z,3.10
2022-09-06T03:14:37.165Z,2.53
2022-09-06T03:17:05.015Z,3.00
2022-09-06T03:19:34.032Z,3.00
2022-09-06T03:22:01.692Z,3.40
2022-09-06T03:24:29.359Z,2.90
2022-09-06T03:26:56.976Z,2.77
2022-09-06T03:29:24.611Z,2.57
2022-09-06T03:31:52.397Z,2.90
2022-09-06T03:34:20.024Z,3.23
2022-09-06T03:36:49.033Z,2.87
2022-09-06T03:39:16.664Z,3.50
2022-09-06T03:41:44.305Z,3.07
2022-09-06T03:44:11.939Z,2.87
2022-09-06T03:46:39.553Z,3.33
2022-09-06T03:49:08.097Z,3.50
2022-09-06T03:51:35.740Z,3.10
2022-09-06T03:54:04.869Z,3.00
2022-09-06T03:56:32.509Z,3.50
2022-09-06T03:59:00.453Z,2.97
2022-09-06T04:01:28.650Z,3.37
2022-09-06T04:03:56.358Z,3.60
2022-09-06T04:06:24.015Z,3.20
2022-09-06T04:08:51.706Z,3.47
2022-09-06T04:11:20.841Z,3.60
2022-09-06T04:13:48.672Z,3.27
2022-09-06T04:16:17.544Z,3.53
2022-09-06T04:18:45.267Z,3.10
2022-09-06T04:21:12.908Z,2.50
2022-09-06T04:23:40.795Z,3.30
2022-09-06T04:26:08.528Z,3.10
2022-09-06T04:28:37.553Z,3.47
2022-09-06T04:31:05.901Z,3.10
2022-09-06T04:33:35.668Z,3.33
2022-09-06T04:36:06.460Z,3.50
2022-09-06T04:38:37.363Z,3.77
2022-09-06T04:41:05.843Z,3.43
2022-09-06T04:43:33.692Z,4.00
2022-09-06T04:46:06.298Z,3.67
2022-09-06T04:48:33.974Z,3.60
2022-09-06T04:51:01.612Z,3.90
2022-09-06T04:53:29.254Z,3.90
2022-09-06T04:55:58.497Z,4.43
2022-09-06T04:58:26.308Z,3.17
2022-09-06T05:00:54.127Z,3.60
2022-09-06T05:03:23.194Z,3.67
2022-09-06T05:05:50.817Z,4.03
2022-09-06T05:08:18.779Z,3.70
2022-09-06T05:10:46.440Z,3.97
2022-09-06T05:13:14.092Z,4.67
2022-09-06T05:15:41.751Z,4.60
2022-09-06T05:18:12.824Z,4.70
2022-09-06T05:20:44.509Z,4.50
2022-09-06T05:23:12.120Z,4.40
2022-09-06T05:25:39.761Z,4.10
2022-09-06T05:28:07.403Z,4.00
2022-09-06T05:30:35.068Z,3.90
2022-09-06T05:33:02.693Z,4.57
2022-09-06T05:35:30.819Z,3.80
2022-09-06T05:37:59.945Z,3.77
2022-09-06T05:40:27.869Z,4.00
2022-09-06T05:42:55.523Z,4.80
2022-09-06T05:45:23.230Z,4.07
2022-09-06T05:47:50.880Z,4.03
2022-09-06T05:50:18.770Z,3.90
2022-09-06T05:52:47.334Z,4.97
2022-09-06T05:55:16.468Z,3.83
2022-09-06T05:57:44.121Z,3.83
2022-09-06T06:00:13.253Z,3.63
2022-09-06T06:02:40.982Z,4.00
2022-09-06T06:05:09.645Z,4.23
2022-09-06T06:07:37.289Z,4.20
2022-09-06T06:10:05.476Z,4.00
2022-09-06T06:12:34.501Z,3.13
2022-09-06T06:15:02.130Z,3.33
2022-09-06T06:17:29.753Z,3.53
2022-09-06T06:19:58.248Z,3.33
2022-09-06T06:22:25.896Z,3.67
2022-09-06T06:24:53.556Z,4.00
2022-09-06T06:27:21.196Z,3.87
2022-09-06T06:29:50.525Z,3.53
2022-09-06T06:32:18.184Z,3.10
2022-09-06T06:34:45.811Z,3.10
2022-09-06T06:37:13.479Z,3.63
2022-09-06T06:39:41.179Z,3.50
2022-09-06T06:42:09.072Z,3.20
2022-09-06T06:44:37.068Z,3.00
2022-09-06T06:47:07.069Z,3.30
2022-09-06T06:49:34.722Z,3.23
2022-09-06T06:52:02.376Z,3.10
2022-09-06T06:54:30.732Z,3.43
2022-09-06T06:56:58.390Z,3.40
2022-09-06T06:59:26.080Z,3.57
2022-09-06T07:01:53.845Z,3.37
2022-09-06T07:04:22.986Z,3.77
2022-09-06T07:12:27.873Z,3.30
2022-09-06T07:14:55.593Z,3.07
2022-09-06T07:17:23.379Z,3.73
2022-09-06T07:22:40.589Z,2.90
2022-09-06T07:25:10.220Z,3.63
2022-09-06T07:30:14.107Z,3.47
2022-09-06T07:32:41.758Z,3.20
2022-09-06T07:35:12.258Z,3.90
2022-09-06T07:37:39.894Z,3.77
2022-09-06T07:40:08.512Z,3.10
2022-09-06T07:42:36.804Z,4.23
2022-09-06T07:45:05.036Z,3.40
2022-09-06T07:53:15.201Z,3.87
2022-09-06T07:55:43.525Z,3.63
2022-09-06T07:58:11.193Z,4.27
2022-09-06T08:00:40.981Z,3.90
2022-09-06T08:03:08.981Z,4.53
2022-09-06T08:11:14.114Z,3.80
2022-09-06T08:13:42.132Z,3.97
2022-09-06T08:16:11.578Z,4.10
2022-09-06T08:18:39.369Z,4.10
2022-09-06T08:21:12.755Z,3.60
2022-09-06T08:23:43.125Z,3.60
2022-09-06T08:26:11.011Z,4.33
2022-09-06T08:28:38.644Z,4.13
2022-09-06T08:31:07.381Z,3.90
2022-09-06T08:33:35.089Z,3.40
2022-09-06T08:36:02.932Z,4.30
2022-09-06T08:38:32.476Z,3.53
2022-09-06T08:41:08.759Z,3.60
2022-09-06T08:43:37.131Z,3.70
2022-09-06T08:46:05.699Z,3.70
2022-09-06T08:48:37.000Z,3.50
2022-09-06T08:51:38.554Z,3.97
2022-09-06T08:54:16.693Z,3.30
2022-09-06T08:57:00.815Z,3.43
2022-09-06T08:59:30.905Z,3.57
2022-09-06T09:02:08.517Z,3.50
2022-09-06T09:04:39.856Z,3.53
2022-09-06T09:07:22.848Z,3.37
2022-09-06T09:09:53.570Z,3.70
2022-09-06T09:12:24.397Z,3.73
2022-09-06T09:14:56.644Z,3.80
2022-09-06T09:17:29.041Z,3.80
2022-09-06T09:19:57.152Z,3.60
2022-09-06T09:22:26.292Z,3.73
2022-09-06T09:24:59.020Z,4.00
2022-09-06T09:27:29.390Z,3.73
2022-09-06T09:32:50.059Z,3.77
2022-09-06T09:35:22.179Z,3.47
2022-09-06T09:38:01.081Z,3.43
2022-09-06T09:40:39.049Z,3.50
2022-09-06T09:43:17.373Z,3.73
2022-09-06T09:45:46.141Z,3.90
2022-09-06T09:48:21.997Z,3.97
2022-09-06T09:50:50.204Z,4.23
2022-09-06T09:53:21.534Z,3.93
2022-09-06T09:55:56.627Z,4.03
2022-09-06T09:58:36.473Z,4.20
2022-09-06T10:01:12.850Z,3.93
2022-09-06T10:09:20.886Z,3.63
2022-09-06T10:11:57.375Z,3.63
2022-09-06T10:14:30.855Z,3.50
2022-09-06T10:16:59.516Z,3.80
2022-09-06T10:19:41.889Z,3.37
2022-09-06T10:22:29.114Z,3.40
2022-09-06T10:25:22.175Z,3.43
2022-09-06T10:28:11.354Z,3.40
2022-09-06T10:30:58.152Z,3.43
2022-09-06T10:33:37.910Z,3.53
2022-09-06T10:36:05.958Z,3.77
2022-09-06T10:38:44.248Z,3.80
2022-09-06T10:41:33.141Z,3.20
2022-09-06T10:44:11.529Z,3.53
2022-09-06T10:46:41.679Z,3.63
2022-09-06T10:49:15.011Z,3.93
2022-09-06T10:51:46.893Z,4.07
2022-09-06T10:54:17.147Z,3.90
2022-09-06T10:56:49.980Z,3.60
2022-09-06T10:59:39.417Z,4.23
2022-09-06T11:02:17.339Z,4.07
2022-09-06T11:07:41.730Z,3.90
2022-09-06T11:10:17.643Z,3.80
2022-09-06T11:12:50.462Z,3.57
2022-09-06T11:15:21.882Z,3.73
2022-09-06T11:17:54.390Z,3.83
2022-09-06T11:20:31.935Z,3.83
2022-09-06T11:23:28.983Z,3.97
2022-09-06T11:26:24.793Z,4.00
2022-09-06T11:28:55.636Z,3.87
2022-09-06T11:34:23.576Z,4.23
2022-09-06T11:36:53.196Z,3.67
2022-09-06T11:42:40.808Z,3.87
2022-09-06T11:45:21.385Z,3.80
2022-09-06T11:47:52.102Z,4.50
2022-09-06T11:50:25.905Z,4.10
2022-09-06T11:53:03.049Z,3.30
2022-09-06T11:55:38.849Z,2.83
2022-09-06T11:58:12.201Z,3.40
2022-09-06T12:00:39.753Z,3.03
2022-09-06T12:06:17.116Z,3.80
2022-09-06T12:08:44.996Z,3.03
2022-09-06T12:11:30.606Z,3.23
2022-09-06T12:14:03.038Z,3.13
2022-09-06T12:17:08.866Z,3.20
2022-09-06T12:19:44.924Z,3.80
2022-09-06T12:22:53.879Z,3.60
2022-09-06T12:25:56.758Z,3.63
2022-09-06T12:28:37.048Z,3.73
2022-09-06T12:31:43.577Z,3.20
2022-09-06T12:34:15.281Z,3.60
2022-09-06T12:36:54.572Z,3.90
2022-09-06T12:39:22.226Z,4.17
2022-09-06T12:41:54.909Z,3.93
2022-09-06T12:44:30.796Z,3.60
2022-09-06T12:47:04.529Z,3.40
2022-09-06T12:49:32.688Z,3.43
2022-09-06T12:52:13.405Z,3.90
2022-09-06T12:54:47.300Z,3.40
2022-09-06T12:57:19.825Z,3.30
2022-09-06T12:59:52.044Z,3.97
2022-09-06T13:02:25.091Z,4.30
2022-09-06T13:04:57.132Z,3.67
2022-09-06T13:07:28.966Z,4.50
2022-09-06T13:09:57.877Z,3.80
2022-09-06T13:12:29.522Z,3.70
2022-09-06T13:15:00.285Z,3.90
2022-09-06T13:17:30.025Z,3.70
2022-09-06T13:19:59.821Z,3.73
2022-09-06T13:22:44.245Z,3.53
2022-09-06T13:25:20.675Z,3.53
2022-09-06T13:27:51.064Z,3.53
2022-09-06T13:30:37.890Z,3.47
2022-09-06T13:33:07.551Z,3.50
2022-09-06T13:35:37.638Z,3.40
2022-09-06T13:38:28.959Z,3.47
2022-09-06T13:41:16.157Z,3.20
2022-09-06T13:43:45.878Z,3.30
2022-09-06T13:46:13.525Z,3.10
2022-09-06T13:48:42.886Z,2.60
2022-09-06T13:51:11.040Z,3.23
2022-09-06T13:53:40.052Z,3.67
2022-09-06T13:56:08.441Z,2.90
2022-09-06T13:58:36.073Z,3.17
2022-09-06T14:01:04.867Z,3.50
2022-09-06T14:03:33.589Z,3.37
2022-09-06T14:06:02.005Z,3.20
2022-09-06T14:08:43.681Z,3.20
2022-09-06T14:11:21.881Z,3.13
2022-09-06T14:13:49.753Z,3.83
2022-09-06T14:16:17.456Z,2.60
2022-09-06T14:18:45.181Z,3.07
2022-09-06T14:21:13.105Z,3.10
2022-09-06T14:23:40.802Z,3.07
2022-09-06T14:26:08.474Z,2.60
2022-09-06T14:28:37.397Z,3.27
2022-09-06T14:31:12.403Z,3.60
2022-09-06T14:33:40.454Z,2.70
2022-09-06T14:36:10.366Z,3.10
2022-09-06T14:38:39.984Z,3.10
2022-09-06T14:41:09.213Z,3.60
2022-09-06T14:43:38.668Z,3.00
2022-09-06T14:46:07.198Z,2.80
2022-09-06T14:48:38.165Z,2.93
2022-09-06T14:51:10.175Z,2.90
2022-09-06T14:53:40.921Z,3.20
2022-09-06T14:56:09.581Z,3.20
2022-09-06T14:58:40.197Z,2.73
2022-09-06T15:01:13.958Z,3.00
2022-09-06T15:03:43.045Z,2.77
2022-09-06T15:06:11.598Z,2.73
2022-09-06T15:08:39.598Z,3.00
2022-09-06T15:11:08.350Z,2.97
2022-09-06T15:13:38.120Z,3.20
2022-09-06T15:16:07.385Z,2.90
2022-09-06T15:18:35.678Z,3.40
2022-09-06T15:21:10.183Z,3.20
2022-09-06T15:23:38.090Z,3.23
2022-09-06T15:26:08.156Z,3.20
2022-09-06T15:28:36.983Z,2.97
2022-09-06T15:31:06.790Z,3.07
2022-09-06T15:33:36.394Z,2.80
2022-09-06T15:36:06.881Z,3.00
2022-09-06T15:38:34.821Z,3.00
2022-09-06T15:41:08.248Z,3.20
2022-09-06T15:43:36.868Z,2.93
2022-09-06T15:46:06.032Z,3.33
2022-09-06T15:48:41.713Z,2.70
2022-09-06T15:51:09.520Z,3.10
2022-09-06T15:53:37.189Z,3.23
2022-09-06T15:56:05.228Z,3.30
2022-09-06T15:58:33.290Z,3.47
2022-09-06T16:01:03.004Z,3.73
2022-09-06T16:03:32.700Z,3.60
2022-09-06T16:08:56.500Z,3.53
2022-09-06T16:11:24.183Z,2.93
2022-09-06T16:13:51.830Z,3.47
2022-09-06T16:16:19.637Z,4.00
2022-09-06T16:18:48.766Z,3.13
2022-09-06T16:21:18.573Z,3.50
2022-09-06T16:23:50.493Z,3.70
2022-09-06T16:26:21.465Z,3.80
2022-09-06T16:28:50.423Z,3.40
2022-09-06T16:31:19.024Z,3.53
2022-09-06T16:33:48.934Z,3.00
2022-09-06T16:36:18.581Z,3.70
2022-09-06T16:38:47.090Z,3.93
2022-09-06T16:41:17.725Z,3.30
2022-09-06T16:43:46.491Z,3.33
2022-09-06T16:46:14.912Z,3.50
2022-09-06T16:48:43.088Z,3.30
2022-09-06T16:51:14.537Z,3.30
2022-09-06T16:53:44.248Z,3.27
2022-09-06T16:56:14.549Z,3.23
2022-09-06T16:58:43.473Z,3.53
2022-09-06T17:01:11.881Z,3.10
2022-09-06T17:03:40.530Z,3.53
2022-09-06T17:06:08.874Z,3.30
2022-09-06T17:08:38.815Z,3.00
2022-09-06T17:11:09.240Z,3.87
2022-09-06T17:13:38.054Z,3.27
2022-09-06T17:16:23.839Z,3.30
2022-09-06T17:18:53.558Z,3.20
2022-09-06T17:21:21.516Z,2.80
2022-09-06T17:23:50.963Z,3.10
2022-09-06T17:26:20.571Z,3.50
2022-09-06T17:28:49.844Z,3.37
2022-09-06T17:31:23.606Z,3.60
2022-09-06T17:33:53.778Z,3.10
2022-09-06T17:36:23.448Z,3.30
2022-09-06T17:38:53.984Z,3.23
2022-09-06T17:41:24.581Z,3.50
2022-09-06T17:43:53.749Z,3.57
2022-09-06T17:46:25.254Z,3.60
2022-09-06T17:48:55.877Z,3.70
2022-09-06T17:51:23.563Z,3.30
2022-09-06T17:53:53.025Z,3.83
2022-09-06T17:56:21.833Z,3.77
2022-09-06T17:58:54.688Z,3.73
2022-09-06T18:01:27.668Z,3.60
2022-09-06T18:03:55.421Z,3.60
2022-09-06T18:06:24.867Z,3.03
2022-09-06T18:08:55.237Z,3.70
2022-09-06T18:11:25.262Z,2.90
2022-09-06T18:13:58.362Z,3.47
2022-09-06T18:16:27.074Z,3.77
2022-09-06T18:18:56.877Z,3.03
2022-09-06T18:21:26.790Z,3.10
2022-09-06T18:23:57.060Z,3.03
2022-09-06T18:26:26.041Z,3.40
2022-09-06T18:28:54.148Z,3.10
2022-09-06T18:31:23.749Z,3.37
2022-09-06T18:33:52.873Z,3.43
2022-09-06T18:36:21.219Z,3.23
2022-09-06T18:38:48.957Z,3.00
2022-09-06T18:41:36.268Z,3.17
2022-09-06T18:44:09.044Z,3.63
2022-09-06T18:46:39.048Z,3.87
2022-09-06T18:49:09.225Z,3.73
2022-09-06T18:51:40.521Z,3.07
2022-09-06T18:54:08.337Z,3.40
2022-09-06T18:56:37.722Z,3.57
2022-09-06T18:59:05.673Z,3.33
2022-09-06T19:01:34.815Z,2.90
2022-09-06T19:04:04.426Z,3.10
2022-09-06T19:06:33.704Z,3.10
2022-09-06T19:09:06.619Z,3.40
2022-09-06T19:11:34.866Z,3.13
2022-09-06T19:14:05.036Z,3.73
2022-09-06T19:16:32.781Z,3.37
2022-09-06T19:19:03.698Z,3.30
2022-09-06T19:21:31.609Z,3.80
2022-09-06T19:24:01.389Z,3.97
2022-09-06T19:26:32.378Z,3.20
2022-09-06T19:29:02.018Z,3.37
2022-09-06T19:31:34.915Z,3.23
2022-09-06T19:34:02.910Z,3.57
2022-09-06T19:36:31.836Z,3.83
2022-09-06T19:39:04.362Z,3.67
2022-09-06T19:41:34.818Z,3.67
2022-09-06T19:44:05.566Z,4.00
2022-09-06T19:46:36.340Z,3.50
2022-09-06T19:49:04.463Z,4.30
2022-09-06T19:51:33.069Z,3.47
2022-09-06T19:54:00.844Z,3.10
2022-09-06T19:56:31.642Z,3.17
2022-09-06T19:59:01.344Z,3.30
2022-09-06T20:01:31.435Z,3.30
2022-09-06T20:04:02.566Z,3.00
2022-09-06T20:06:31.230Z,3.00
2022-09-06T20:09:00.479Z,3.30
2022-09-06T20:11:30.258Z,2.97
2022-09-06T20:13:58.309Z,3.20
2022-09-06T20:16:26.514Z,3.60
2022-09-06T20:18:56.249Z,3.17
2022-09-06T20:21:25.870Z,3.00
2022-09-06T20:23:55.437Z,2.80
2022-09-06T20:26:24.773Z,3.50
2022-09-06T20:28:56.390Z,3.50
2022-09-06T20:31:24.401Z,3.47
2022-09-06T20:33:52.057Z,3.80
2022-09-06T20:36:20.612Z,3.60
2022-09-06T20:38:50.104Z,3.87
2022-09-06T20:41:19.688Z,3.30
2022-09-06T20:43:52.056Z,4.10
2022-09-06T20:46:21.843Z,3.93
2022-09-06T20:48:49.848Z,3.60
2022-09-06T20:51:19.764Z,3.90
2022-09-06T20:53:52.741Z,3.53
2022-09-06T20:56:23.570Z,3.20
2022-09-06T20:58:52.217Z,4.10
2022-09-06T21:01:23.293Z,3.40
2022-09-06T21:03:53.119Z,3.90
2022-09-06T21:06:21.998Z,3.00
2022-09-06T21:08:51.637Z,3.50
2022-09-06T21:11:19.701Z,3.60
2022-09-06T21:13:50.313Z,3.30
2022-09-06T21:16:23.304Z,3.43
2022-09-06T21:18:52.701Z,3.53
2022-09-06T21:21:20.362Z,3.30
2022-09-06T21:23:48.068Z,3.10
2022-09-06T21:26:17.338Z,3.03
2022-09-06T21:28:47.039Z,3.10
2022-09-06T21:31:17.121Z,3.03
2022-09-06T21:33:46.296Z,3.53
2022-09-06T21:36:15.784Z,3.00
2022-09-06T21:38:45.284Z,3.10
2022-09-06T21:41:14.388Z,3.37
2022-09-06T21:43:43.500Z,2.87
2022-09-06T21:46:15.584Z,3.20
2022-09-06T21:48:45.370Z,3.60
2022-09-06T21:51:15.519Z,3.50
2022-09-06T21:53:43.949Z,3.07
2022-09-06T21:56:12.462Z,3.10
2022-09-06T21:58:40.114Z,3.10
2022-09-06T22:01:09.597Z,3.50
2022-09-06T22:03:40.143Z,2.80
2022-09-06T22:06:11.934Z,3.40
2022-09-06T22:08:42.015Z,2.93
2022-09-06T22:11:11.036Z,2.97
2022-09-06T22:13:39.284Z,3.60
2022-09-06T22:16:09.298Z,3.30
2022-09-06T22:18:37.442Z,3.40
2022-09-06T22:21:07.732Z,3.37
2022-09-06T22:23:35.933Z,3.47
2022-09-06T22:26:05.011Z,3.10
2022-09-06T22:28:33.589Z,3.20
2022-09-06T22:31:01.501Z,3.30
2022-09-06T22:33:30.878Z,3.17
2022-09-06T22:36:00.422Z,3.43
2022-09-06T22:38:28.669Z,3.00
2022-09-06T22:40:57.129Z,3.60
2022-09-06T22:43:25.425Z,3.43
2022-09-06T22:45:53.227Z,3.30
2022-09-06T22:48:20.908Z,3.60
2022-09-06T22:50:49.902Z,3.27
2022-09-06T22:53:17.849Z,2.93
2022-09-06T22:55:47.737Z,2.90
2022-09-06T22:58:15.517Z,2.73
2022-09-06T23:00:43.298Z,2.90
2022-09-06T23:03:11.110Z,2.90
2022-09-06T23:05:38.776Z,2.80
2022-09-06T23:08:08.265Z,3.10
2022-09-06T23:10:40.813Z,2.80
2022-09-06T23:13:09.185Z,2.63
2022-09-06T23:15:37.166Z,2.87
2022-09-06T23:18:05.261Z,3.10
2022-09-06T23:20:32.902Z,3.70
2022-09-06T23:23:00.533Z,2.80
2022-09-06T23:25:29.528Z,2.90
2022-09-06T23:27:59.149Z,2.90
2022-09-06T23:30:26.777Z,2.73
2022-09-06T23:32:56.320Z,3.00
2022-09-06T23:35:24.057Z,3.37
2022-09-06T23:37:52.249Z,2.60
2022-09-06T23:40:20.342Z,2.90
2022-09-06T23:42:49.344Z,2.53
2022-09-06T23:45:17.260Z,3.23
2022-09-06T23:47:45.257Z,2.63
2022-09-06T23:50:12.903Z,3.20
2022-09-06T23:52:40.520Z,3.03
2022-09-06T23:55:09.293Z,2.87
2022-09-06T23:57:36.951Z,2.87
